Time;durP1;ratioP1;P1;durP2;ratioP2;P2;SDS_P1;SDS_P2;PMS_P1;PMS_P2;Temp;Humidity;BMP_temperature;BMP_pressure;BME280_temperature;BME280_humidity;BME280_pressure;Samples;Min_cycle;Max_cycle;Signal;HPM_P1;HPM_P2
2023/06/22 00:00:51;;;;;;;394.13;373.88;;;15.90;99.90;;;;;;5044056;28;20071;-73
2023/06/22 00:03:22;;;;;;;391.80;372.23;;;15.90;99.90;;;;;;5041380;28;20053;-73
2023/06/22 00:05:48;;;;;;;417.00;389.83;;;15.80;99.90;;;;;;5041267;28;20044;-73
2023/06/22 00:08:15;;;;;;;406.08;385.25;;;15.80;99.90;;;;;;5041643;28;20124;-73
2023/06/22 00:10:41;;;;;;;410.00;389.08;;;15.70;99.90;;;;;;5026363;28;20394;-73
2023/06/22 00:13:08;;;;;;;444.70;404.15;;;15.70;99.90;;;;;;5065832;28;20049;-73
2023/06/22 00:15:34;;;;;;;467.48;440.75;;;15.70;99.90;;;;;;5037524;28;20128;-73
2023/06/22 00:18:00;;;;;;;518.33;486.90;;;15.70;99.90;;;;;;5041374;28;20109;-73
2023/06/22 00:20:29;;;;;;;447.52;424.23;;;15.60;99.90;;;;;;5041362;28;20045;-73
2023/06/22 00:22:59;;;;;;;421.88;400.48;;;15.60;99.90;;;;;;5039303;28;20048;-73
2023/06/22 00:25:25;;;;;;;411.58;389.80;;;15.60;99.90;;;;;;5040711;28;20044;-73
2023/06/22 00:27:51;;;;;;;448.48;425.35;;;15.50;99.90;;;;;;5041147;28;20550;-73
2023/06/22 00:30:18;;;;;;;454.73;431.45;;;15.40;99.90;;;;;;5058267;28;20701;-73
2023/06/22 00:32:45;;;;;;;421.10;399.52;;;15.40;99.90;;;;;;5040766;28;20044;-73
2023/06/22 00:35:14;;;;;;;432.15;409.13;;;15.40;99.90;;;;;;5042178;28;20045;-72
2023/06/22 00:37:43;;;;;;;413.00;392.17;;;15.40;99.90;;;;;;5048999;28;20050;-73
2023/06/22 00:40:13;;;;;;;422.27;383.90;;;15.40;99.90;;;;;;5025508;28;20116;-72
2023/06/22 00:42:39;;;;;;;403.02;383.45;;;15.30;99.90;;;;;;5043031;28;20108;-72
2023/06/22 00:45:06;;;;;;;405.13;385.33;;;15.30;99.90;;;;;;5039435;28;20116;-73
2023/06/22 00:47:32;;;;;;;448.77;426.02;;;15.20;99.90;;;;;;5041453;28;20552;-72
2023/06/22 00:49:58;;;;;;;499.85;473.55;;;15.20;99.90;;;;;;5042874;28;20047;-72
2023/06/22 00:52:28;;;;;;;492.23;465.65;;;15.10;99.90;;;;;;5022599;28;20052;-73
2023/06/22 00:54:56;;;;;;;401.83;382.35;;;15.10;99.90;;;;;;5042341;28;20794;-73
2023/06/22 00:57:25;;;;;;;424.67;398.85;;;15.10;99.90;;;;;;5037749;28;20496;-73
2023/06/22 00:59:51;;;;;;;410.83;390.60;;;15.10;99.90;;;;;;5042792;28;20041;-72
2023/06/22 01:02:16;;;;;;;420.63;400.30;;;15.00;99.90;;;;;;5066233;28;20044;-73
2023/06/22 01:04:42;;;;;;;435.42;413.67;;;15.00;99.90;;;;;;5043027;28;20056;-73
2023/06/22 01:07:30;;;;;;;489.23;463.88;;;15.00;99.90;;;;;;5040883;28;20560;-73
2023/06/22 01:10:24;;;;;;;462.48;438.55;;;14.90;99.90;;;;;;5039687;28;20048;-72
2023/06/22 01:12:58;;;;;;;510.52;482.35;;;14.90;99.90;;;;;;5042147;28;20048;-73
2023/06/22 01:15:31;;;;;;;516.58;487.40;;;14.90;99.90;;;;;;5040344;28;20048;-73
2023/06/22 01:17:58;;;;;;;499.50;471.90;;;14.90;99.90;;;;;;5039807;28;20045;-73
2023/06/22 01:20:27;;;;;;;428.27;404.40;;;14.90;99.90;;;;;;5039867;28;20095;-73
2023/06/22 01:23:08;;;;;;;476.00;450.48;;;14.90;99.90;;;;;;5041412;28;20052;-73
2023/06/22 01:26:02;;;;;;;416.60;394.13;;;14.90;99.90;;;;;;5067812;28;20045;-73
2023/06/22 01:28:50;;;;;;;356.17;336.48;;;15.00;99.90;;;;;;5063828;28;20490;-73
2023/06/22 01:31:19;;;;;;;360.55;340.45;;;15.00;99.90;;;;;;5040923;28;20136;-73
2023/06/22 01:33:50;;;;;;;455.80;431.17;;;15.10;99.90;;;;;;5041485;28;20119;-73
2023/06/22 01:36:17;;;;;;;492.20;465.02;;;15.10;99.90;;;;;;5044403;28;20391;-73
2023/06/22 01:38:44;;;;;;;490.77;463.75;;;15.10;99.90;;;;;;5041518;28;20779;-73
2023/06/22 01:41:11;;;;;;;488.08;462.08;;;15.00;99.90;;;;;;5044297;28;20040;-73
2023/06/22 01:43:37;;;;;;;511.20;482.73;;;14.90;99.90;;;;;;5029576;28;20052;-72
2023/06/22 01:46:03;;;;;;;475.15;450.35;;;14.90;99.90;;;;;;5027008;28;20471;-72
2023/06/22 01:48:30;;;;;;;459.20;434.38;;;14.90;99.90;;;;;;5049909;28;20603;-72
2023/06/22 01:50:55;;;;;;;506.27;477.75;;;14.90;99.90;;;;;;5028736;28;20052;-72
2023/06/22 01:53:22;;;;;;;491.48;464.83;;;14.80;99.90;;;;;;5043304;28;20049;-72
2023/06/22 01:55:48;;;;;;;491.30;464.35;;;14.80;99.90;;;;;;5046961;28;20481;-72
2023/06/22 01:58:14;;;;;;;506.40;478.08;;;14.80;99.90;;;;;;5041529;28;20497;-72
2023/06/22 02:00:45;;;;;;;484.55;456.98;;;14.80;99.90;;;;;;5042706;28;20036;-72
2023/06/22 02:03:18;;;;;;;460.60;435.38;;;14.80;99.90;;;;;;5039321;28;20072;-72
2023/06/22 02:05:51;;;;;;;442.45;418.27;;;14.80;99.90;;;;;;5043596;28;20500;-72
2023/06/22 02:08:23;;;;;;;417.20;394.25;;;14.80;99.90;;;;;;5070349;28;20045;-72
2023/06/22 02:10:52;;;;;;;391.50;370.23;;;14.80;99.90;;;;;;5045728;28;20128;-72
2023/06/22 02:13:19;;;;;;;441.48;401.58;;;14.80;99.90;;;;;;5044602;28;20087;-73
2023/06/22 02:15:46;;;;;;;480.17;454.63;;;14.80;99.90;;;;;;5068110;28;20077;-72
2023/06/22 02:18:12;;;;;;;456.27;430.77;;;14.80;99.90;;;;;;5027220;28;20041;-73
2023/06/22 02:20:38;;;;;;;471.30;444.90;;;14.80;99.90;;;;;;5023978;28;20037;-72
2023/06/22 02:23:06;;;;;;;388.02;366.17;;;14.70;99.90;;;;;;5043513;28;20107;-73
2023/06/22 02:25:32;;;;;;;407.35;384.95;;;14.70;99.90;;;;;;5055178;28;20033;-73
2023/06/22 02:27:58;;;;;;;461.50;435.27;;;14.70;99.90;;;;;;5039793;28;20052;-73
2023/06/22 02:30:23;;;;;;;396.05;372.88;;;14.70;99.90;;;;;;5023652;28;20531;-72
2023/06/22 02:32:49;;;;;;;297.42;276.67;;;14.70;99.90;;;;;;5041823;28;20087;-72
2023/06/22 02:35:15;;;;;;;432.88;409.70;;;14.70;99.90;;;;;;5045589;28;20033;-73
2023/06/22 02:37:43;;;;;;;451.73;426.92;;;14.80;99.90;;;;;;5042472;28;20044;-72
2023/06/22 02:40:10;;;;;;;380.30;361.20;;;14.70;99.90;;;;;;5043638;28;20041;-73
2023/06/22 02:42:36;;;;;;;417.00;395.13;;;14.70;99.90;;;;;;5026438;28;20083;-73
2023/06/22 02:45:02;;;;;;;454.00;427.02;;;14.60;99.90;;;;;;5045004;28;20060;-73
2023/06/22 02:47:29;;;;;;;423.52;385.67;;;14.60;99.90;;;;;;5070506;28;20044;-73
2023/06/22 02:49:54;;;;;;;374.45;356.30;;;14.50;99.90;;;;;;5042862;28;20045;-73
2023/06/22 02:52:20;;;;;;;379.27;360.52;;;14.50;99.90;;;;;;5042412;28;20695;-73
2023/06/22 02:54:46;;;;;;;425.30;398.65;;;14.40;99.90;;;;;;5027429;28;20425;-73
2023/06/22 02:57:13;;;;;;;455.33;431.75;;;14.40;99.90;;;;;;5050785;28;20041;-73
2023/06/22 02:59:40;;;;;;;407.40;386.88;;;14.40;99.90;;;;;;5027891;28;20044;-73
2023/06/22 03:02:06;;;;;;;394.90;375.33;;;14.40;99.90;;;;;;5027033;28;20041;-72
2023/06/22 03:04:32;;;;;;;431.52;409.45;;;14.30;99.90;;;;;;5043432;28;20055;-73
2023/06/22 03:07:00;;;;;;;426.38;403.83;;;14.30;99.90;;;;;;5053264;28;20049;-73
2023/06/22 03:09:27;;;;;;;401.90;381.75;;;14.30;99.90;;;;;;5058718;28;20124;-73
2023/06/22 03:11:54;;;;;;;428.65;406.52;;;14.20;99.90;;;;;;5041087;28;20451;-73
2023/06/22 03:14:19;;;;;;;417.33;395.70;;;14.20;99.90;;;;;;5043173;28;20539;-73
2023/06/22 03:16:45;;;;;;;435.95;413.35;;;14.20;99.90;;;;;;5042332;28;20041;-73
2023/06/22 03:19:11;;;;;;;402.13;381.60;;;14.20;99.90;;;;;;5029417;28;20475;-73
2023/06/22 03:21:40;;;;;;;395.63;375.52;;;14.20;99.90;;;;;;5024294;28;20043;-72
2023/06/22 03:24:07;;;;;;;423.65;401.33;;;14.20;99.90;;;;;;5068129;28;20516;-73
2023/06/22 03:26:33;;;;;;;412.20;390.73;;;14.20;99.90;;;;;;5042273;28;20086;-73
2023/06/22 03:28:58;;;;;;;420.83;398.33;;;14.20;99.90;;;;;;5040068;28;20052;-73
2023/06/22 03:31:24;;;;;;;448.58;424.52;;;14.10;99.90;;;;;;5065630;28;20041;-73
2023/06/22 03:33:50;;;;;;;459.63;433.23;;;14.10;99.90;;;;;;5013881;28;20045;-72
2023/06/22 03:36:19;;;;;;;463.60;436.27;;;14.10;99.90;;;;;;5047939;28;20180;-73
2023/06/22 03:38:46;;;;;;;447.05;423.23;;;14.20;99.90;;;;;;5051220;28;20040;-72
2023/06/22 03:41:12;;;;;;;419.02;395.90;;;14.20;99.90;;;;;;5019871;28;20055;-73
2023/06/22 03:43:38;;;;;;;415.08;393.42;;;14.20;99.90;;;;;;5034153;28;20041;-73
2023/06/22 03:46:04;;;;;;;433.35;410.75;;;14.20;99.90;;;;;;5021392;28;20477;-73
2023/06/22 03:48:29;;;;;;;420.52;398.90;;;14.20;99.90;;;;;;5021995;28;20584;-72
2023/06/22 03:50:55;;;;;;;409.13;388.02;;;14.20;99.90;;;;;;5025728;28;20107;-73
2023/06/22 03:53:21;;;;;;;421.40;399.10;;;14.30;99.90;;;;;;5031146;28;20141;-72
2023/06/22 03:55:51;;;;;;;420.45;398.02;;;14.30;99.90;;;;;;5017244;28;20106;-72
2023/06/22 03:58:18;;;;;;;425.95;403.08;;;14.30;99.90;;;;;;5021048;28;20041;-73
2023/06/22 04:00:53;;;;;;;403.88;382.83;;;14.40;99.90;;;;;;5044753;28;20047;-73
2023/06/22 04:03:19;;;;;;;401.00;380.15;;;14.40;99.90;;;;;;5063068;28;20075;-72
2023/06/22 04:05:45;;;;;;;439.88;416.63;;;14.50;99.90;;;;;;5027922;28;20505;-72
2023/06/22 04:08:13;;;;;;;421.77;397.70;;;14.50;99.90;;;;;;5038098;28;20102;-72
2023/06/22 04:10:38;;;;;;;427.58;404.10;;;14.60;99.90;;;;;;5040092;28;20393;-73
2023/06/22 04:13:04;;;;;;;406.00;384.75;;;14.60;99.90;;;;;;5022548;28;20060;-73
2023/06/22 04:15:30;;;;;;;434.55;410.25;;;14.70;99.90;;;;;;5032321;28;20558;-73
2023/06/22 04:17:56;;;;;;;403.95;381.90;;;14.70;99.90;;;;;;5025649;28;20033;-73
2023/06/22 04:20:22;;;;;;;323.60;302.27;;;14.80;99.90;;;;;;5035636;28;20501;-73
2023/06/22 04:22:48;;;;;;;400.67;377.98;;;14.80;99.90;;;;;;5026030;28;20056;-73
2023/06/22 04:25:14;;;;;;;389.48;367.60;;;14.80;99.90;;;;;;5025794;28;20041;-73
2023/06/22 04:27:42;;;;;;;377.40;354.35;;;14.90;99.90;;;;;;5039855;28;20069;-72
2023/06/22 04:30:08;;;;;;;372.15;352.48;;;14.90;99.90;;;;;;5016938;28;20099;-73
2023/06/22 04:32:36;;;;;;;334.48;316.40;;;15.00;99.90;;;;;;5038259;28;20041;-73
2023/06/22 04:35:04;;;;;;;358.45;326.15;;;15.00;99.90;;;;;;5026959;28;20049;-73
2023/06/22 04:37:30;;;;;;;366.10;344.80;;;15.00;99.90;;;;;;5020601;28;20049;-73
2023/06/22 04:39:56;;;;;;;360.60;337.88;;;15.10;99.90;;;;;;5039312;28;20045;-73
2023/06/22 04:42:21;;;;;;;395.50;356.55;;;15.20;99.90;;;;;;5043896;28;20505;-72
2023/06/22 04:44:47;;;;;;;375.25;341.88;;;15.30;99.90;;;;;;5034625;28;20094;-73
2023/06/22 04:47:13;;;;;;;335.42;307.83;;;15.30;99.90;;;;;;5035879;28;20049;-73
2023/06/22 04:49:40;;;;;;;353.20;307.52;;;15.30;99.90;;;;;;5043200;28;20115;-73
2023/06/22 04:52:10;;;;;;;342.05;304.75;;;15.40;99.90;;;;;;5022318;28;20050;-72
2023/06/22 04:54:39;;;;;;;523.78;332.50;;;15.40;99.90;;;;;;5033162;28;20048;-72
2023/06/22 04:57:10;;;;;;;333.80;300.55;;;15.50;99.90;;;;;;5035514;28;20598;-73
2023/06/22 04:59:38;;;;;;;368.35;330.35;;;15.50;99.90;;;;;;5038398;28;20465;-73
2023/06/22 05:02:05;;;;;;;344.88;317.63;;;15.70;99.90;;;;;;5069880;28;20077;-73
2023/06/22 05:04:32;;;;;;;324.85;294.33;;;15.90;99.90;;;;;;5036018;28;20053;-73
2023/06/22 05:06:59;;;;;;;303.60;282.65;;;16.00;99.90;;;;;;5041348;28;20056;-73
2023/06/22 05:09:25;;;;;;;282.15;259.50;;;16.10;99.90;;;;;;5033512;28;20048;-73
2023/06/22 05:11:51;;;;;;;245.35;230.35;;;16.20;99.90;;;;;;5052108;28;20463;-73
2023/06/22 05:14:18;;;;;;;246.93;231.68;;;16.30;99.90;;;;;;5046461;28;20045;-73
2023/06/22 05:16:44;;;;;;;253.75;231.30;;;16.50;99.90;;;;;;5044439;28;20041;-73
2023/06/22 05:19:10;;;;;;;207.57;196.20;;;16.60;99.90;;;;;;5037925;28;20065;-73
2023/06/22 05:21:36;;;;;;;211.07;198.73;;;16.70;99.90;;;;;;5042602;28;20075;-72
2023/06/22 05:24:02;;;;;;;211.45;199.77;;;16.90;99.90;;;;;;5048017;28;20036;-73
2023/06/22 05:26:33;;;;;;;190.55;179.77;;;17.00;99.90;;;;;;5035996;28;20079;-72
2023/06/22 05:29:00;;;;;;;189.77;178.77;;;17.20;99.90;;;;;;5035012;28;20077;-73
2023/06/22 05:31:26;;;;;;;184.95;174.45;;;17.30;99.90;;;;;;5055823;28;20504;-72
2023/06/22 05:33:54;;;;;;;167.75;157.50;;;17.40;99.90;;;;;;5049493;28;20051;-72
2023/06/22 05:36:21;;;;;;;160.85;151.20;;;17.60;99.90;;;;;;5030045;28;20059;-72
2023/06/22 05:38:47;;;;;;;151.05;141.70;;;17.70;99.90;;;;;;5046154;28;20527;-72
2023/06/22 05:41:13;;;;;;;121.10;113.10;;;17.80;99.90;;;;;;5047346;28;20493;-73
2023/06/22 05:43:39;;;;;;;165.65;155.05;;;18.00;99.90;;;;;;5036887;28;20048;-73
2023/06/22 05:46:05;;;;;;;130.10;121.90;;;18.20;99.90;;;;;;5028864;28;20092;-73
2023/06/22 05:48:31;;;;;;;226.18;213.80;;;18.40;99.90;;;;;;5038011;28;20056;-73
2023/06/22 05:50:57;;;;;;;297.30;281.60;;;18.50;99.90;;;;;;5074064;28;20052;-72
2023/06/22 05:53:23;;;;;;;339.25;321.30;;;18.70;99.90;;;;;;5053412;28;20044;-72
2023/06/22 05:55:49;;;;;;;375.20;355.30;;;18.80;99.90;;;;;;5032224;28;20128;-72
2023/06/22 05:58:15;;;;;;;390.27;369.05;;;18.90;99.90;;;;;;5016004;28;20034;-72
2023/06/22 06:00:41;;;;;;;401.42;380.02;;;18.90;99.90;;;;;;5036045;28;20041;-73
2023/06/22 06:03:07;;;;;;;377.58;357.50;;;19.00;99.90;;;;;;5033181;28;20132;-72
2023/06/22 06:05:34;;;;;;;370.58;350.92;;;19.10;99.90;;;;;;5040527;28;20500;-73
2023/06/22 06:08:01;;;;;;;368.42;348.52;;;19.20;99.90;;;;;;5055919;28;20057;-73
2023/06/22 06:10:27;;;;;;;339.48;320.95;;;19.30;99.90;;;;;;5024802;28;20076;-72
2023/06/22 06:12:53;;;;;;;268.55;254.45;;;19.50;99.90;;;;;;5034885;28;20072;-73
2023/06/22 06:15:18;;;;;;;299.10;283.20;;;19.70;99.90;;;;;;5044138;28;20037;-73
2023/06/22 06:17:52;;;;;;;260.85;246.98;;;19.90;99.90;;;;;;5023332;28;20118;-73
2023/06/22 06:20:21;;;;;;;216.75;204.85;;;20.20;99.90;;;;;;5039792;28;20041;-73
2023/06/22 06:22:48;;;;;;;233.23;220.80;;;20.40;99.90;;;;;;5042824;28;20668;-73
2023/06/22 06:25:15;;;;;;;205.05;193.52;;;20.80;99.90;;;;;;5040110;28;20496;-73
2023/06/22 06:27:50;;;;;;;135.60;127.10;;;21.10;99.90;;;;;;5036257;28;20574;-74
2023/06/22 06:30:17;;;;;;;102.63;95.75;;;21.40;99.90;;;;;;5026839;28;20113;-74
2023/06/22 06:32:45;;;;;;;85.95;79.82;;;21.70;99.90;;;;;;5040225;28;20385;-74
2023/06/22 06:35:12;;;;;;;92.18;86.00;;;22.20;99.90;;;;;;5040303;28;20117;-73
2023/06/22 06:37:40;;;;;;;89.93;83.93;;;22.40;99.90;;;;;;5064943;28;20040;-73
2023/06/22 06:40:10;;;;;;;88.70;82.35;;;22.70;99.90;;;;;;5058485;28;20041;-74
2023/06/22 06:42:41;;;;;;;96.65;90.55;;;23.00;99.90;;;;;;5050747;28;20053;-73
2023/06/22 06:45:28;;;;;;;82.68;77.13;;;23.20;99.90;;;;;;5070251;28;20053;-73
2023/06/22 06:47:54;;;;;;;71.45;66.80;;;23.20;99.90;;;;;;5038508;28;20080;-74
2023/06/22 06:50:20;;;;;;;75.85;71.00;;;23.30;99.90;;;;;;5034588;28;20080;-74
2023/06/22 06:52:46;;;;;;;69.53;64.97;;;23.40;99.90;;;;;;5044309;28;20476;-74
2023/06/22 06:55:11;;;;;;;88.15;83.22;;;23.80;99.90;;;;;;5032266;28;20048;-75
2023/06/22 06:57:41;;;;;;;116.47;110.43;;;24.00;99.90;;;;;;5058898;28;20048;-76
2023/06/22 07:00:16;;;;;;;286.45;272.05;;;24.40;99.90;;;;;;5044607;28;20052;-75
2023/06/22 07:02:43;;;;;;;96.50;91.43;;;24.70;99.90;;;;;;4976363;28;1496301;-75
2023/06/22 07:05:10;;;;;;;154.13;146.77;;;24.80;99.90;;;;;;5037587;28;20062;-75
2023/06/22 07:07:36;;;;;;;189.02;179.88;;;25.10;99.90;;;;;;5061951;28;20045;-75
2023/06/22 07:10:03;;;;;;;174.48;166.15;;;25.70;99.90;;;;;;5034912;28;20417;-76
2023/06/22 07:12:28;;;;;;;144.43;137.45;;;26.10;99.90;;;;;;5027276;28;20049;-75
2023/06/22 07:15:00;;;;;;;84.95;80.60;;;26.60;99.90;;;;;;5042220;28;20040;-76
2023/06/22 07:17:26;;;;;;;59.33;55.88;;;26.80;99.90;;;;;;5047767;28;20500;-77
2023/06/22 07:19:51;;;;;;;58.63;55.25;;;26.70;99.90;;;;;;5061732;28;20045;-74
2023/06/22 07:22:17;;;;;;;49.67;46.58;;;26.30;99.90;;;;;;5037938;28;20426;-76
2023/06/22 07:24:42;;;;;;;67.75;63.92;;;26.00;99.90;;;;;;5032591;28;20048;-74
2023/06/22 07:27:11;;;;;;;166.10;157.38;;;26.00;99.90;;;;;;5024383;28;20393;-74
2023/06/22 07:29:37;;;;;;;32.63;30.15;;;26.10;99.90;;;;;;5030583;28;20048;-75
2023/06/22 07:32:05;;;;;;;40.47;37.65;;;26.00;99.90;;;;;;5036923;28;20052;-75
2023/06/22 07:34:30;;;;;;;92.75;87.63;;;26.30;99.90;;;;;;5027360;28;20053;-75
2023/06/22 07:36:56;;;;;;;65.20;61.47;;;26.80;99.90;;;;;;5025850;28;20651;-74
2023/06/22 07:39:25;;;;;;;54.63;51.53;;;27.10;99.90;;;;;;5038497;28;20049;-74
2023/06/22 07:41:51;;;;;;;38.30;35.83;;;27.30;99.90;;;;;;5074514;28;20053;-75
2023/06/22 07:44:17;;;;;;;127.80;121.05;;;27.60;99.90;;;;;;5019072;28;20037;-76
2023/06/22 07:46:42;;;;;;;120.20;113.97;;;27.60;99.90;;;;;;5024202;28;20055;-74
2023/06/22 07:49:08;;;;;;;461.48;436.85;;;27.30;99.90;;;;;;5041838;28;20057;-74
2023/06/22 07:51:34;;;;;;;45.92;43.13;;;27.10;99.90;;;;;;5039011;28;20064;-74
2023/06/22 07:54:00;;;;;;;173.50;165.23;;;26.80;99.90;;;;;;5022946;28;20576;-74
2023/06/22 07:56:25;;;;;;;77.25;73.20;;;26.60;99.90;;;;;;5057380;28;20037;-74
2023/06/22 07:58:51;;;;;;;216.52;205.75;;;26.30;99.90;;;;;;5036640;28;20752;-74
2023/06/22 08:01:19;;;;;;;236.40;224.93;;;26.40;99.90;;;;;;5036537;28;20037;-75
2023/06/22 08:03:44;;;;;;;126.03;119.70;;;26.40;99.90;;;;;;5030002;28;20056;-74
2023/06/22 08:06:10;;;;;;;60.28;56.90;;;26.60;99.90;;;;;;5038910;28;20049;-74
2023/06/22 08:08:37;;;;;;;68.40;64.70;;;26.60;99.90;;;;;;5038272;28;20045;-75
2023/06/22 08:11:02;;;;;;;163.90;155.95;;;26.70;99.90;;;;;;5040125;28;20136;-75
2023/06/22 08:13:29;;;;;;;176.38;167.18;;;26.80;99.90;;;;;;5042327;28;20678;-76
2023/06/22 08:15:55;;;;;;;277.23;263.40;;;26.80;99.90;;;;;;5031707;28;20642;-76
2023/06/22 08:18:20;;;;;;;74.28;70.32;;;26.90;99.90;;;;;;5042431;28;20040;-75
2023/06/22 08:20:46;;;;;;;63.08;59.60;;;27.20;99.90;;;;;;5036794;28;20531;-74
2023/06/22 08:23:11;;;;;;;88.95;84.22;;;27.50;99.90;;;;;;5036867;28;20048;-76
2023/06/22 08:25:37;;;;;;;35.58;33.25;;;27.60;99.90;;;;;;5033999;28;20049;-75
2023/06/22 08:28:04;;;;;;;73.85;69.85;;;27.90;99.90;;;;;;5031421;28;20128;-76
2023/06/22 08:30:30;;;;;;;351.52;334.55;;;28.20;99.90;;;;;;5042545;28;20493;-75
2023/06/22 08:32:56;;;;;;;367.80;349.73;;;28.30;99.70;;;;;;5023672;28;20043;-74
2023/06/22 08:35:23;;;;;;;350.17;333.27;;;28.00;98.70;;;;;;5040445;28;20032;-75
2023/06/22 08:37:55;;;;;;;155.32;147.90;;;28.00;99.40;;;;;;5034730;28;20124;-75
2023/06/22 08:40:21;;;;;;;147.13;140.15;;;27.80;98.10;;;;;;5040590;28;20759;-76
2023/06/22 08:42:47;;;;;;;181.13;172.90;;;27.80;99.80;;;;;;5041030;28;20036;-75
2023/06/22 08:45:14;;;;;;;128.40;121.88;;;28.00;98.70;;;;;;5040622;28;20798;-76
2023/06/22 08:47:41;;;;;;;152.75;145.15;;;28.20;99.40;;;;;;5042255;28;20053;-75
2023/06/22 08:50:08;;;;;;;255.85;244.05;;;28.20;99.70;;;;;;5034373;28;20501;-74
2023/06/22 08:52:35;;;;;;;235.40;223.95;;;28.30;98.40;;;;;;5024288;28;20044;-74
2023/06/22 08:55:00;;;;;;;328.20;311.60;;;28.40;98.20;;;;;;5044851;28;20163;-74
2023/06/22 08:57:27;;;;;;;369.15;350.38;;;28.30;97.10;;;;;;5035003;28;20530;-74
2023/06/22 08:59:53;;;;;;;245.02;233.18;;;28.20;97.00;;;;;;5045182;28;20048;-75
2023/06/22 09:02:19;;;;;;;207.15;197.30;;;28.20;97.70;;;;;;5026866;28;20080;-74
2023/06/22 09:04:46;;;;;;;156.20;148.90;;;27.90;97.20;;;;;;5028166;28;20048;-75
2023/06/22 09:07:12;;;;;;;280.17;266.27;;;27.70;98.50;;;;;;5036162;28;20049;-75
2023/06/22 09:09:37;;;;;;;480.42;454.42;;;27.80;98.90;;;;;;5062900;28;20523;-75
2023/06/22 09:12:04;;;;;;;337.67;321.05;;;28.00;96.90;;;;;;5029414;28;20053;-77
2023/06/22 09:14:29;;;;;;;413.30;391.98;;;28.00;96.50;;;;;;5042613;28;20049;-75
2023/06/22 09:16:55;;;;;;;508.83;480.30;;;27.90;95.90;;;;;;5034910;28;20044;-75
2023/06/22 09:19:21;;;;;;;65.00;61.70;;;27.80;96.30;;;;;;5063194;28;20123;-76
2023/06/22 09:21:47;;;;;;;158.10;150.25;;;27.90;97.60;;;;;;5036044;28;20167;-76
2023/06/22 09:24:12;;;;;;;170.45;162.38;;;28.30;97.90;;;;;;5043442;28;20045;-75
2023/06/22 09:26:38;;;;;;;522.55;493.83;;;28.60;98.00;;;;;;5039529;28;20056;-75
2023/06/22 09:29:07;;;;;;;479.23;453.38;;;28.90;96.80;;;;;;5028819;28;20109;-76
2023/06/22 09:31:32;;;;;;;190.65;181.23;;;29.00;96.10;;;;;;5026830;28;20045;-75
2023/06/22 09:33:58;;;;;;;315.80;299.35;;;29.00;94.80;;;;;;5032856;28;20061;-76
2023/06/22 09:36:24;;;;;;;568.53;536.10;;;29.00;96.30;;;;;;5030471;28;20057;-75
2023/06/22 09:38:55;;;;;;;582.35;549.50;;;28.90;95.50;;;;;;5044198;28;20045;-74
2023/06/22 09:41:21;;;;;;;486.88;459.63;;;28.80;94.40;;;;;;5028449;28;20049;-74
2023/06/22 09:43:48;;;;;;;524.50;494.35;;;28.70;94.10;;;;;;5041477;28;20394;-75
2023/06/22 09:46:15;;;;;;;562.63;531.03;;;28.30;94.70;;;;;;5029136;28;20387;-75
2023/06/22 09:48:41;;;;;;;443.35;418.90;;;28.10;93.90;;;;;;5037384;28;20063;-74
2023/06/22 09:51:07;;;;;;;542.40;511.95;;;28.00;95.10;;;;;;5037942;28;20048;-75
2023/06/22 09:53:34;;;;;;;327.55;309.83;;;27.80;95.30;;;;;;5037841;28;20091;-75
2023/06/22 09:56:01;;;;;;;426.55;401.48;;;27.50;96.10;;;;;;5040766;28;20115;-74
2023/06/22 09:58:27;;;;;;;639.78;600.70;;;27.40;95.40;;;;;;5032858;28;20485;-75
2023/06/22 10:00:54;;;;;;;595.13;560.42;;;27.30;94.70;;;;;;5046650;28;20094;-74
2023/06/22 10:03:20;;;;;;;304.35;289.67;;;26.80;94.40;;;;;;5032003;28;20618;-75
2023/06/22 10:05:46;;;;;;;165.70;158.05;;;26.30;95.50;;;;;;5036381;28;20082;-74
2023/06/22 10:08:11;;;;;;;238.60;227.82;;;26.10;97.30;;;;;;5037116;28;20572;-75
2023/06/22 10:10:37;;;;;;;100.47;95.43;;;26.00;97.50;;;;;;5040302;28;20053;-75
2023/06/22 10:13:11;;;;;;;161.90;154.15;;;25.90;98.20;;;;;;5031600;28;20397;-75
2023/06/22 10:15:37;;;;;;;224.73;214.48;;;25.80;98.70;;;;;;5051022;28;20440;-75
2023/06/22 10:18:03;;;;;;;234.50;223.55;;;26.10;99.90;;;;;;5037562;28;20117;-74
2023/06/22 10:20:29;;;;;;;261.42;249.02;;;26.40;99.90;;;;;;5024246;28;20160;-74
2023/06/22 10:22:55;;;;;;;185.05;176.35;;;26.50;99.30;;;;;;5020927;28;20041;-74
2023/06/22 10:25:22;;;;;;;313.38;298.88;;;26.60;99.10;;;;;;5044651;28;20055;-74
2023/06/22 10:27:48;;;;;;;357.00;339.27;;;26.90;98.80;;;;;;5061309;28;20045;-75
2023/06/22 10:30:14;;;;;;;269.13;256.23;;;27.20;97.60;;;;;;5035077;28;20057;-74
2023/06/22 10:32:42;;;;;;;308.10;292.75;;;27.20;97.20;;;;;;5031600;28;20052;-73
2023/06/22 10:35:08;;;;;;;322.00;305.98;;;27.20;97.10;;;;;;5049863;28;20489;-73
2023/06/22 10:37:34;;;;;;;291.13;276.65;;;27.10;96.40;;;;;;5036810;28;20049;-75
2023/06/22 10:39:59;;;;;;;315.85;299.83;;;27.30;97.90;;;;;;5021740;28;20048;-75
2023/06/22 10:42:25;;;;;;;556.65;524.13;;;27.50;97.90;;;;;;5038831;28;20076;-73
2023/06/22 10:44:51;;;;;;;470.45;444.52;;;27.80;96.50;;;;;;5031019;28;20116;-74
2023/06/22 10:47:16;;;;;;;453.52;428.73;;;27.80;95.00;;;;;;5025277;28;20486;-74
2023/06/22 10:49:42;;;;;;;452.75;426.52;;;27.80;95.20;;;;;;5063094;28;20118;-74
2023/06/22 10:52:09;;;;;;;554.83;523.25;;;27.70;94.80;;;;;;5039236;28;20045;-74
2023/06/22 10:54:35;;;;;;;603.55;567.35;;;27.70;93.20;;;;;;5031887;28;20544;-76
2023/06/22 10:57:01;;;;;;;422.17;399.08;;;27.60;93.50;;;;;;5020429;28;20482;-74
2023/06/22 10:59:29;;;;;;;618.13;581.25;;;27.60;94.20;;;;;;5014920;28;20545;-75
2023/06/22 11:01:56;;;;;;;503.85;475.67;;;27.70;94.60;;;;;;5064167;28;20721;-74
2023/06/22 11:04:22;;;;;;;593.10;558.15;;;27.90;92.80;;;;;;5041501;28;20062;-74
2023/06/22 11:06:49;;;;;;;209.73;199.98;;;28.00;92.60;;;;;;5010390;28;20068;-76
2023/06/22 11:09:20;;;;;;;407.15;385.33;;;28.00;93.90;;;;;;5019319;28;20444;-77
2023/06/22 11:11:46;;;;;;;569.50;536.90;;;28.20;93.20;;;;;;5042415;28;20048;-78
2023/06/22 11:14:12;;;;;;;573.25;540.25;;;28.20;93.70;;;;;;5044756;28;20051;-78
2023/06/22 11:16:37;;;;;;;300.38;285.05;;;28.20;92.50;;;;;;5034310;28;20033;-78
2023/06/22 11:19:05;;;;;;;486.35;458.58;;;28.10;94.10;;;;;;5037168;28;20052;-77
2023/06/22 11:21:31;;;;;;;233.45;221.00;;;28.20;94.00;;;;;;5043425;28;20044;-79
2023/06/22 11:23:57;;;;;;;467.27;441.42;;;28.10;94.20;;;;;;5041095;28;20045;-76
2023/06/22 11:26:23;;;;;;;536.83;506.90;;;28.20;91.50;;;;;;5043181;28;20040;-77
2023/06/22 11:28:48;;;;;;;269.70;256.00;;;28.00;92.30;;;;;;5037498;28;20041;-79
2023/06/22 11:31:14;;;;;;;456.63;432.33;;;27.90;91.20;;;;;;5024591;28;20120;-77
2023/06/22 11:33:40;;;;;;;629.15;590.97;;;27.70;90.90;;;;;;5037229;28;20064;-78
2023/06/22 11:36:06;;;;;;;458.63;432.15;;;27.50;91.70;;;;;;5047847;28;20094;-76
2023/06/22 11:38:32;;;;;;;583.45;548.63;;;27.30;92.10;;;;;;5035082;28;20076;-78
2023/06/22 11:40:58;;;;;;;450.95;426.52;;;27.10;92.40;;;;;;5039479;28;20048;-76
2023/06/22 11:43:24;;;;;;;615.45;578.17;;;27.10;93.50;;;;;;5029514;28;20055;-77
2023/06/22 11:45:50;;;;;;;496.90;467.48;;;27.10;92.60;;;;;;5030570;28;20088;-76
2023/06/22 11:48:16;;;;;;;677.90;635.45;;;26.90;92.80;;;;;;5029330;28;20091;-76
2023/06/22 11:50:41;;;;;;;499.95;472.45;;;26.80;92.30;;;;;;5036536;28;20045;-77
2023/06/22 11:53:07;;;;;;;87.75;83.60;;;26.70;93.10;;;;;;5038454;28;20043;-76
2023/06/22 11:55:33;;;;;;;73.07;69.40;;;26.60;94.30;;;;;;5040532;28;20134;-77
2023/06/22 11:58:00;;;;;;;62.25;59.00;;;26.60;95.20;;;;;;5025913;28;20072;-77
2023/06/22 12:00:26;;;;;;;96.80;92.20;;;26.80;95.80;;;;;;5029044;28;20052;-77
2023/06/22 12:02:52;;;;;;;156.48;149.00;;;26.90;96.60;;;;;;5025534;28;20080;-77
2023/06/22 12:05:22;;;;;;;514.97;486.35;;;27.10;96.00;;;;;;5046117;28;20068;-77
2023/06/22 12:07:48;;;;;;;249.70;236.80;;;27.30;94.80;;;;;;5043108;28;20044;-76
2023/06/22 12:10:15;;;;;;;393.67;373.00;;;27.40;95.00;;;;;;5037450;28;20139;-77